Time;durP1;ratioP1;P1;durP2;ratioP2;P2;SDS_P1;SDS_P2;PMS_P1;PMS_P2;Temp;Humidity;BMP_temperature;BMP_pressure;BME280_temperature;BME280_humidity;BME280_pressure;Samples;Min_cycle;Max_cycle;Signal;HPM_P1;HPM_P2
2023/04/08 00:00:51;;;;;;;3.10;2.80;;;20.20;40.60;;;;;;5063650;28;20458;-78
2023/04/08 00:03:19;;;;;;;2.80;2.60;;;20.20;40.70;;;;;;5058522;28;20454;-77
2023/04/08 00:05:47;;;;;;;3.00;2.80;;;20.10;40.10;;;;;;5075496;28;20464;-77
2023/04/08 00:08:15;;;;;;;2.80;2.60;;;20.20;40.10;;;;;;5067653;28;20470;-77
2023/04/08 00:10:43;;;;;;;4.10;2.83;;;20.10;39.90;;;;;;5071652;28;20476;-77
2023/04/08 00:13:13;;;;;;;2.70;2.50;;;20.10;40.20;;;;;;5063556;28;21065;-76
2023/04/08 00:15:41;;;;;;;2.93;2.50;;;20.10;40.20;;;;;;5072852;28;20445;-77
2023/04/08 00:18:09;;;;;;;2.57;2.40;;;20.10;40.30;;;;;;5062807;28;20454;-77
2023/04/08 00:20:37;;;;;;;2.70;2.40;;;20.10;40.30;;;;;;5056389;28;20442;-77
2023/04/08 00:23:05;;;;;;;5.93;3.27;;;20.10;40.40;;;;;;5066468;28;20471;-77
2023/04/08 00:25:32;;;;;;;2.97;2.70;;;20.00;40.40;;;;;;5070774;28;20450;-78
2023/04/08 00:28:00;;;;;;;2.80;2.60;;;20.00;40.30;;;;;;5080775;28;20477;-78
2023/04/08 00:30:30;;;;;;;2.63;2.43;;;20.00;40.40;;;;;;5068989;28;20458;-78
2023/04/08 00:32:58;;;;;;;3.10;2.80;;;20.00;40.30;;;;;;5074312;28;20452;-78
2023/04/08 00:35:27;;;;;;;2.83;2.60;;;20.00;40.20;;;;;;5080834;28;20483;-78
2023/04/08 00:37:55;;;;;;;3.50;2.60;;;20.00;40.40;;;;;;5068879;28;20925;-77
2023/04/08 00:40:23;;;;;;;2.73;2.53;;;20.00;40.50;;;;;;5076811;28;20453;-78
2023/04/08 00:42:51;;;;;;;4.73;2.50;;;20.00;40.60;;;;;;5077798;28;20427;-77
2023/04/08 00:45:19;;;;;;;3.30;3.10;;;20.00;40.40;;;;;;5078042;28;20524;-78
2023/04/08 00:47:51;;;;;;;5.90;2.40;;;20.00;40.50;;;;;;5072314;28;20454;-78
2023/04/08 00:50:20;;;;;;;2.63;2.43;;;20.00;40.50;;;;;;5081215;28;20453;-79
2023/04/08 00:52:48;;;;;;;3.63;2.70;;;20.00;40.50;;;;;;5072454;28;20457;-78
2023/04/08 00:55:16;;;;;;;3.20;2.60;;;20.00;40.50;;;;;;5067981;28;20850;-78
2023/04/08 00:57:44;;;;;;;2.83;2.63;;;20.00;40.60;;;;;;5071519;28;20468;-78
2023/04/08 01:00:14;;;;;;;3.70;2.70;;;20.00;40.50;;;;;;5067492;28;20448;-78
2023/04/08 01:02:45;;;;;;;5.53;2.90;;;20.00;40.50;;;;;;5077181;28;20505;-78
2023/04/08 01:05:15;;;;;;;2.60;2.40;;;20.00;40.50;;;;;;5072745;28;20441;-78
2023/04/08 01:07:46;;;;;;;3.17;2.90;;;19.90;40.50;;;;;;5073227;28;20429;-78
2023/04/08 01:10:17;;;;;;;2.60;2.50;;;20.00;40.50;;;;;;5073413;28;20547;-77
2023/04/08 01:12:51;;;;;;;3.33;2.47;;;20.00;40.40;;;;;;5070904;28;20450;-78
2023/04/08 01:15:19;;;;;;;2.87;2.67;;;20.00;40.40;;;;;;5073032;28;20476;-78
2023/04/08 01:17:48;;;;;;;2.80;2.60;;;19.90;40.70;;;;;;5075965;28;20460;-78
2023/04/08 01:20:17;;;;;;;2.50;2.30;;;19.90;40.50;;;;;;5071031;28;20477;-78
2023/04/08 01:22:55;;;;;;;3.00;2.80;;;19.90;40.40;;;;;;5072341;28;20442;-78
2023/04/08 01:25:24;;;;;;;4.70;2.40;;;20.00;40.50;;;;;;5081192;28;20459;-78
2023/04/08 01:27:55;;;;;;;2.93;2.73;;;19.90;40.50;;;;;;5071237;28;20460;-78
2023/04/08 01:30:23;;;;;;;2.93;2.63;;;19.90;40.50;;;;;;5071885;28;20445;-78
2023/04/08 01:32:51;;;;;;;8.37;2.77;;;19.90;40.50;;;;;;5070593;28;20442;-78
2023/04/08 01:35:19;;;;;;;2.70;2.50;;;19.90;40.60;;;;;;5074222;28;20473;-78
2023/04/08 01:37:47;;;;;;;2.57;2.37;;;19.90;40.60;;;;;;5067742;28;20441;-78
2023/04/08 01:40:15;;;;;;;2.80;2.60;;;19.90;40.60;;;;;;5072930;28;20412;-78
2023/04/08 01:42:43;;;;;;;3.23;3.03;;;19.90;40.60;;;;;;5074343;28;20440;-78
2023/04/08 01:45:12;;;;;;;2.90;2.70;;;19.90;40.60;;;;;;5084833;28;20425;-78
2023/04/08 01:47:40;;;;;;;2.33;2.23;;;19.80;40.50;;;;;;5065450;28;20450;-77
2023/04/08 01:50:08;;;;;;;2.70;2.50;;;19.80;40.60;;;;;;5071766;28;20452;-78
2023/04/08 01:52:37;;;;;;;2.57;2.37;;;19.90;40.70;;;;;;5088253;28;20447;-78
2023/04/08 01:55:06;;;;;;;2.90;2.67;;;19.80;40.50;;;;;;5064597;28;20473;-78
2023/04/08 01:57:35;;;;;;;3.50;2.50;;;19.80;40.60;;;;;;5089031;28;20441;-78
2023/04/08 02:00:04;;;;;;;3.83;2.53;;;19.80;40.70;;;;;;5076547;28;20460;-78
2023/04/08 02:02:34;;;;;;;5.07;2.50;;;19.80;40.70;;;;;;5080297;28;20463;-78
2023/04/08 02:05:02;;;;;;;2.57;2.37;;;19.80;40.70;;;;;;5069460;28;20447;-78
2023/04/08 02:07:30;;;;;;;2.77;2.50;;;19.80;40.70;;;;;;5067023;28;20450;-78
2023/04/08 02:09:58;;;;;;;2.90;2.60;;;19.80;40.70;;;;;;5068535;28;20472;-78
2023/04/08 02:12:27;;;;;;;3.70;2.90;;;19.80;40.70;;;;;;5067966;28;20446;-78
2023/04/08 02:14:58;;;;;;;3.33;2.67;;;19.80;40.60;;;;;;5069871;28;20466;-78
2023/04/08 02:17:29;;;;;;;2.70;2.50;;;19.70;40.60;;;;;;5070511;28;20449;-78
2023/04/08 02:20:00;;;;;;;2.50;2.30;;;19.70;40.70;;;;;;5067900;28;20972;-78
2023/04/08 02:22:34;;;;;;;3.30;2.23;;;19.70;40.70;;;;;;5065863;28;20458;-78
2023/04/08 02:25:02;;;;;;;2.80;2.63;;;19.70;40.60;;;;;;5070801;28;20426;-78
2023/04/08 02:27:30;;;;;;;3.73;3.40;;;19.70;40.80;;;;;;5064002;28;20434;-78
2023/04/08 02:29:57;;;;;;;2.77;2.57;;;19.70;40.70;;;;;;5079150;28;20469;-78
2023/04/08 02:32:25;;;;;;;2.77;2.60;;;19.70;40.80;;;;;;5067068;28;20437;-78
2023/04/08 02:34:53;;;;;;;3.30;2.80;;;19.70;40.80;;;;;;5072170;28;20476;-78
2023/04/08 02:37:22;;;;;;;5.13;3.20;;;19.70;40.80;;;;;;5068789;28;20453;-78
2023/04/08 02:39:50;;;;;;;3.60;2.40;;;19.70;40.70;;;;;;5065726;28;20470;-78
2023/04/08 02:42:18;;;;;;;2.73;2.53;;;19.70;40.80;;;;;;5069351;28;20456;-78
2023/04/08 02:44:46;;;;;;;3.50;2.77;;;19.70;40.80;;;;;;5070429;28;20452;-78
2023/04/08 02:47:14;;;;;;;3.53;2.60;;;19.60;40.90;;;;;;5061730;28;20447;-78
2023/04/08 02:49:42;;;;;;;2.23;2.13;;;19.60;40.80;;;;;;5082882;28;20553;-78
2023/04/08 02:52:10;;;;;;;2.77;2.53;;;19.60;40.80;;;;;;5068565;28;20441;-78
2023/04/08 02:54:39;;;;;;;3.00;2.80;;;19.60;40.80;;;;;;5064446;28;20445;-78
2023/04/08 02:57:08;;;;;;;3.13;2.90;;;19.60;40.80;;;;;;5068335;28;20472;-78
2023/04/08 02:59:37;;;;;;;2.70;2.50;;;19.60;40.90;;;;;;5069694;28;20473;-78
2023/04/08 03:02:05;;;;;;;2.50;2.30;;;19.60;40.90;;;;;;5071766;28;20457;-78
2023/04/08 03:04:34;;;;;;;2.50;2.30;;;19.60;40.80;;;;;;5068760;28;20545;-77
2023/04/08 03:07:02;;;;;;;2.93;2.63;;;19.50;40.90;;;;;;5066557;28;20457;-78
2023/04/08 03:09:30;;;;;;;5.27;2.37;;;19.50;40.90;;;;;;5070545;28;20492;-77
2023/04/08 03:11:59;;;;;;;2.97;2.77;;;19.50;40.90;;;;;;5070108;28;20457;-77
2023/04/08 03:14:27;;;;;;;2.37;2.27;;;19.50;40.90;;;;;;5069151;28;20840;-78
2023/04/08 03:16:55;;;;;;;2.50;2.40;;;19.50;40.90;;;;;;5065854;28;20473;-76
2023/04/08 03:19:23;;;;;;;2.47;2.27;;;19.50;40.90;;;;;;5064049;28;20502;-77
2023/04/08 03:21:52;;;;;;;2.27;2.13;;;19.50;40.90;;;;;;5067938;28;20442;-77
2023/04/08 03:24:20;;;;;;;2.47;2.33;;;19.50;40.90;;;;;;5065568;28;20481;-77
2023/04/08 03:26:47;;;;;;;2.87;2.67;;;19.50;41.00;;;;;;5067957;28;20447;-77
2023/04/08 03:29:17;;;;;;;2.37;2.17;;;19.50;41.00;;;;;;5059853;28;20570;-77
2023/04/08 03:31:45;;;;;;;2.53;2.33;;;19.50;41.00;;;;;;5065840;28;20457;-77
2023/04/08 03:34:13;;;;;;;2.77;2.50;;;19.50;41.10;;;;;;5065658;28;20450;-78
2023/04/08 03:36:41;;;;;;;3.20;2.50;;;19.50;41.20;;;;;;5062786;28;20469;-78
2023/04/08 03:39:09;;;;;;;2.57;2.37;;;19.40;41.00;;;;;;5063665;28;20470;-77
2023/04/08 03:41:37;;;;;;;2.70;2.50;;;19.40;41.00;;;;;;5070036;28;20450;-78
2023/04/08 03:44:05;;;;;;;3.83;2.43;;;19.40;41.00;;;;;;5068263;28;20462;-77
2023/04/08 03:46:35;;;;;;;2.33;2.23;;;19.40;41.00;;;;;;5070174;28;20446;-77
2023/04/08 03:49:03;;;;;;;2.97;2.77;;;19.40;41.10;;;;;;5067952;28;20464;-77
2023/04/08 03:51:31;;;;;;;2.50;2.40;;;19.40;41.00;;;;;;5059377;28;20447;-77
2023/04/08 03:53:59;;;;;;;2.80;2.60;;;19.40;41.00;;;;;;5061794;28;20461;-77
2023/04/08 03:56:28;;;;;;;2.07;1.97;;;19.40;41.20;;;;;;5063503;28;20461;-77
2023/04/08 03:58:56;;;;;;;2.80;2.60;;;19.40;41.00;;;;;;5064325;28;20474;-77
2023/04/08 04:01:24;;;;;;;2.70;2.50;;;19.30;41.60;;;;;;5065765;28;20471;-75
2023/04/08 04:03:54;;;;;;;2.50;2.10;;;19.30;41.00;;;;;;5063734;28;20446;-77
2023/04/08 04:06:22;;;;;;;2.70;2.50;;;19.30;41.10;;;;;;5059595;28;20481;-77
2023/04/08 04:08:50;;;;;;;2.60;2.40;;;19.30;41.10;;;;;;5059954;28;20484;-77
2023/04/08 04:11:18;;;;;;;2.73;2.50;;;19.30;41.10;;;;;;5061715;28;20492;-76
2023/04/08 04:13:46;;;;;;;2.63;2.43;;;19.30;41.00;;;;;;5062328;28;20450;-77
2023/04/08 04:16:15;;;;;;;2.67;2.47;;;19.30;41.00;;;;;;5058175;28;20477;-77
2023/04/08 04:18:43;;;;;;;2.80;2.60;;;19.30;41.00;;;;;;5060855;28;20477;-77
2023/04/08 04:21:12;;;;;;;2.70;2.50;;;19.30;41.20;;;;;;5064352;28;20438;-75
2023/04/08 04:23:41;;;;;;;2.80;2.60;;;19.30;41.00;;;;;;5064214;28;20449;-78
2023/04/08 04:26:09;;;;;;;2.70;2.50;;;19.30;41.30;;;;;;5064446;28;20422;-77
2023/04/08 04:28:37;;;;;;;2.50;2.33;;;19.30;41.20;;;;;;5064876;28;20483;-77
2023/04/08 04:31:05;;;;;;;2.63;2.43;;;19.30;41.20;;;;;;5070855;28;20449;-77
2023/04/08 04:33:33;;;;;;;2.87;2.67;;;19.30;41.30;;;;;;5071512;28;20495;-77
2023/04/08 04:36:02;;;;;;;2.77;2.53;;;19.20;41.30;;;;;;5066912;28;20475;-77
2023/04/08 04:38:31;;;;;;;2.60;2.50;;;19.30;41.20;;;;;;5071055;28;20474;-78
2023/04/08 04:41:00;;;;;;;2.93;2.73;;;19.20;41.20;;;;;;5070708;28;20440;-77
2023/04/08 04:43:28;;;;;;;2.43;2.23;;;19.30;41.30;;;;;;5070177;28;20442;-77
2023/04/08 04:45:56;;;;;;;3.23;2.93;;;19.20;41.40;;;;;;5071582;28;20446;-77
2023/04/08 04:48:24;;;;;;;2.57;2.43;;;19.30;41.20;;;;;;5071318;28;20489;-77
2023/04/08 04:50:55;;;;;;;2.87;2.67;;;19.20;41.20;;;;;;5069356;28;20445;-77
2023/04/08 04:53:23;;;;;;;2.63;2.43;;;19.20;41.20;;;;;;5061810;28;20521;-77
2023/04/08 04:55:52;;;;;;;2.97;2.77;;;19.20;41.40;;;;;;5068846;28;20476;-78
2023/04/08 04:58:20;;;;;;;3.97;2.47;;;19.20;41.30;;;;;;5070387;28;20485;-77
2023/04/08 05:00:48;;;;;;;2.60;2.50;;;19.20;41.40;;;;;;5070394;28;20453;-77
2023/04/08 05:03:15;;;;;;;3.47;3.17;;;19.20;41.40;;;;;;5063283;28;20450;-77
2023/04/08 05:05:44;;;;;;;3.10;2.90;;;19.20;41.30;;;;;;5070972;28;20449;-77
2023/04/08 05:08:12;;;;;;;2.63;2.43;;;19.20;41.20;;;;;;5063484;28;20480;-78
2023/04/08 05:10:41;;;;;;;3.47;2.50;;;19.20;41.30;;;;;;5071270;28;20444;-77
2023/04/08 05:13:10;;;;;;;3.20;2.93;;;19.10;41.20;;;;;;5070639;28;20432;-77
2023/04/08 05:15:38;;;;;;;3.70;3.20;;;19.10;41.30;;;;;;5069078;28;20454;-77
2023/04/08 05:18:06;;;;;;;3.13;2.67;;;19.20;41.30;;;;;;5070923;28;20476;-77
2023/04/08 05:20:34;;;;;;;3.13;2.93;;;19.10;41.50;;;;;;5065457;28;20521;-77
2023/04/08 05:23:01;;;;;;;2.73;2.53;;;19.10;41.30;;;;;;5062939;28;20466;-77
2023/04/08 05:25:29;;;;;;;2.60;2.50;;;19.10;41.50;;;;;;5069271;28;20434;-77
2023/04/08 05:27:57;;;;;;;3.27;3.00;;;19.10;41.40;;;;;;5068999;28;20449;-77
2023/04/08 05:30:26;;;;;;;3.10;2.90;;;19.10;41.20;;;;;;5070118;28;20441;-77
2023/04/08 05:32:54;;;;;;;2.77;2.57;;;19.10;41.40;;;;;;5070937;28;20437;-77
2023/04/08 05:35:25;;;;;;;3.30;3.10;;;19.10;41.40;;;;;;5069021;28;20450;-77
2023/04/08 05:37:53;;;;;;;3.10;2.90;;;19.10;41.50;;;;;;5069250;28;20925;-77
2023/04/08 05:40:20;;;;;;;3.20;3.00;;;19.10;41.50;;;;;;5068897;28;20481;-77
2023/04/08 05:42:48;;;;;;;3.40;3.10;;;19.10;41.30;;;;;;5076125;28;20452;-77
2023/04/08 05:45:17;;;;;;;3.33;3.07;;;19.10;41.40;;;;;;5072626;28;20513;-77
2023/04/08 05:47:47;;;;;;;3.20;2.90;;;19.10;41.50;;;;;;5076150;28;20953;-77
2023/04/08 05:50:15;;;;;;;3.57;3.27;;;19.10;41.50;;;;;;5075161;28;20984;-77
2023/04/08 05:52:44;;;;;;;3.10;2.90;;;19.10;41.30;;;;;;5069350;28;20450;-77
2023/04/08 05:55:12;;;;;;;3.30;3.00;;;19.10;41.40;;;;;;5080864;28;20432;-77
2023/04/08 05:57:40;;;;;;;3.07;2.87;;;19.10;41.40;;;;;;5080842;28;20470;-77
2023/04/08 06:00:09;;;;;;;3.00;2.73;;;19.10;41.40;;;;;;5079724;28;20433;-77
2023/04/08 06:02:38;;;;;;;3.27;2.80;;;19.10;41.40;;;;;;5076110;28;20455;-77
2023/04/08 06:05:09;;;;;;;3.60;3.30;;;19.10;41.40;;;;;;5077234;28;20449;-77
2023/04/08 06:07:37;;;;;;;3.40;3.10;;;19.10;41.30;;;;;;5076399;28;20533;-77
2023/04/08 06:10:06;;;;;;;3.27;3.07;;;19.10;41.30;;;;;;5076476;28;20445;-78
2023/04/08 06:12:36;;;;;;;3.33;3.10;;;19.10;41.30;;;;;;5077644;28;20441;-77
2023/04/08 06:15:04;;;;;;;3.30;3.00;;;19.20;41.40;;;;;;5074704;28;20453;-77
2023/04/08 06:17:32;;;;;;;2.90;2.70;;;19.20;41.40;;;;;;5073163;28;20470;-78
2023/04/08 06:20:02;;;;;;;3.57;2.97;;;19.20;41.40;;;;;;5072852;28;21028;-77
2023/04/08 06:22:32;;;;;;;3.20;2.90;;;19.20;41.30;;;;;;5071919;28;20520;-75
2023/04/08 06:25:00;;;;;;;4.00;3.63;;;19.20;41.20;;;;;;5075699;28;20457;-77
2023/04/08 06:27:28;;;;;;;3.30;3.00;;;19.30;41.40;;;;;;5076282;28;20434;-77
2023/04/08 06:29:56;;;;;;;3.23;2.93;;;19.30;41.40;;;;;;5076157;28;20465;-77
2023/04/08 06:32:24;;;;;;;3.23;2.93;;;19.30;41.30;;;;;;5075527;28;20450;-77
2023/04/08 06:34:51;;;;;;;3.40;3.10;;;19.30;41.30;;;;;;5078311;28;20445;-77
2023/04/08 06:37:19;;;;;;;2.80;2.60;;;19.30;41.30;;;;;;5076347;28;20469;-77
2023/04/08 06:39:49;;;;;;;3.07;2.87;;;19.40;41.20;;;;;;5074894;28;20473;-77
2023/04/08 06:42:16;;;;;;;3.17;2.97;;;19.30;41.20;;;;;;5068734;28;20438;-77
2023/04/08 06:44:44;;;;;;;3.47;3.17;;;19.30;41.20;;;;;;5072069;28;20449;-77
2023/04/08 06:47:13;;;;;;;3.17;2.93;;;19.30;41.10;;;;;;5074334;28;20457;-77
2023/04/08 06:49:40;;;;;;;3.13;2.93;;;19.30;41.10;;;;;;5075380;28;20468;-77
2023/04/08 06:52:08;;;;;;;3.30;3.10;;;19.30;41.30;;;;;;5076762;28;20445;-77
2023/04/08 06:54:36;;;;;;;3.77;3.47;;;19.30;41.10;;;;;;5071507;28;20450;-77
2023/04/08 06:57:06;;;;;;;3.17;2.97;;;19.30;41.30;;;;;;5073172;28;20487;-77
2023/04/08 06:59:34;;;;;;;3.27;2.97;;;19.40;41.30;;;;;;5071736;28;20473;-78
2023/04/08 07:02:02;;;;;;;3.60;3.30;;;19.40;41.10;;;;;;5074516;28;20449;-77
2023/04/08 07:04:30;;;;;;;3.63;3.33;;;19.40;41.10;;;;;;5074878;28;20456;-78
2023/04/08 07:06:58;;;;;;;3.70;3.40;;;19.30;41.20;;;;;;5072048;28;20473;-77
2023/04/08 07:09:26;;;;;;;3.40;3.10;;;19.40;41.30;;;;;;5072396;28;20575;-77
2023/04/08 07:11:54;;;;;;;3.80;3.50;;;19.40;41.20;;;;;;5072076;28;20454;-77
2023/04/08 07:14:24;;;;;;;3.50;3.20;;;19.40;41.10;;;;;;5071438;28;20456;-78
2023/04/08 07:16:52;;;;;;;3.70;3.40;;;19.40;41.20;;;;;;5073246;28;20450;-78
2023/04/08 07:19:20;;;;;;;3.80;3.50;;;19.40;41.20;;;;;;5066333;28;20496;-76
2023/04/08 07:21:48;;;;;;;3.33;3.03;;;19.40;41.10;;;;;;5073943;28;20449;-78
2023/04/08 07:24:16;;;;;;;3.37;3.13;;;19.50;41.20;;;;;;5073091;28;20468;-77
2023/04/08 07:26:45;;;;;;;3.30;2.97;;;19.50;41.20;;;;;;5068635;28;20476;-76
2023/04/08 07:29:13;;;;;;;2.90;2.70;;;19.50;41.00;;;;;;5070664;28;20465;-77
2023/04/08 07:31:43;;;;;;;3.80;3.50;;;19.50;41.10;;;;;;5074712;28;20446;-77
2023/04/08 07:34:12;;;;;;;3.57;3.27;;;19.50;41.10;;;;;;5074716;28;20445;-78
2023/04/08 07:36:40;;;;;;;3.70;3.40;;;19.50;41.10;;;;;;5068106;28;20485;-78
2023/04/08 07:39:08;;;;;;;4.93;3.73;;;19.50;41.00;;;;;;5073827;28;20485;-78
2023/04/08 07:41:36;;;;;;;4.97;3.40;;;19.50;41.10;;;;;;5071443;28;20449;-78
2023/04/08 07:44:04;;;;;;;3.57;3.27;;;19.50;41.10;;;;;;5068465;28;20454;-77
2023/04/08 07:46:32;;;;;;;3.00;2.80;;;19.50;41.10;;;;;;5071183;28;20454;-77
2023/04/08 07:49:02;;;;;;;3.70;3.30;;;19.50;41.20;;;;;;5071491;28;20473;-77
2023/04/08 07:51:30;;;;;;;3.40;3.10;;;19.50;41.10;;;;;;5073305;28;20457;-77
2023/04/08 07:53:59;;;;;;;3.10;2.90;;;19.50;41.20;;;;;;5071818;28;20457;-77
2023/04/08 07:56:27;;;;;;;3.50;3.20;;;19.50;41.00;;;;;;5070578;28;20465;-77
2023/04/08 07:58:56;;;;;;;4.10;3.50;;;19.50;41.20;;;;;;5070617;28;20474;-77
2023/04/08 08:01:24;;;;;;;5.53;3.10;;;19.50;41.10;;;;;;5073528;28;20453;-78
2023/04/08 08:03:52;;;;;;;2.90;2.70;;;19.50;41.20;;;;;;5073402;28;20537;-78
2023/04/08 08:06:22;;;;;;;3.63;3.30;;;19.50;41.10;;;;;;5068691;28;20434;-77
2023/04/08 08:08:50;;;;;;;3.97;3.57;;;19.50;41.10;;;;;;5071993;28;20454;-78
2023/04/08 08:11:18;;;;;;;3.37;3.07;;;19.60;41.20;;;;;;5064967;28;20461;-78
2023/04/08 08:13:46;;;;;;;5.50;3.10;;;19.70;41.20;;;;;;5072613;28;20493;-77
2023/04/08 08:16:17;;;;;;;3.37;3.17;;;19.70;41.10;;;;;;5070797;28;20454;-78
2023/04/08 08:18:47;;;;;;;4.43;3.43;;;19.70;41.00;;;;;;5072980;28;20473;-78
2023/04/08 08:21:15;;;;;;;3.80;3.50;;;19.70;41.10;;;;;;5071904;28;20492;-77
2023/04/08 08:23:45;;;;;;;4.10;3.70;;;19.70;41.10;;;;;;5070930;28;20456;-76
2023/04/08 08:26:13;;;;;;;3.57;3.30;;;19.70;41.00;;;;;;5069901;28;20458;-77
2023/04/08 08:28:41;;;;;;;4.10;3.70;;;19.70;41.00;;;;;;5071638;28;20465;-77
2023/04/08 08:31:10;;;;;;;3.40;3.10;;;19.70;41.00;;;;;;5071013;28;20457;-77
2023/04/08 08:33:38;;;;;;;3.80;3.50;;;19.70;41.00;;;;;;5069235;28;20452;-76
2023/04/08 08:36:06;;;;;;;3.90;3.60;;;19.70;41.00;;;;;;5071685;28;20450;-77
2023/04/08 08:38:34;;;;;;;3.97;3.57;;;19.70;41.00;;;;;;5070692;28;20500;-77
2023/04/08 08:41:04;;;;;;;4.00;3.60;;;19.80;41.10;;;;;;5072833;28;20442;-76
2023/04/08 08:43:33;;;;;;;3.50;3.27;;;19.80;41.10;;;;;;5067833;28;20460;-77
2023/04/08 08:46:02;;;;;;;4.13;3.73;;;19.80;41.10;;;;;;5071478;28;20457;-77
2023/04/08 08:48:31;;;;;;;3.43;3.23;;;19.90;41.10;;;;;;5070574;28;20488;-77
2023/04/08 08:51:00;;;;;;;4.23;3.83;;;19.90;41.10;;;;;;5067103;28;20450;-77
2023/04/08 08:53:30;;;;;;;3.47;3.17;;;19.90;41.00;;;;;;5071338;28;20445;-78
2023/04/08 08:56:03;;;;;;;3.97;3.60;;;19.90;41.20;;;;;;5069227;28;20521;-77
2023/04/08 08:58:46;;;;;;;3.80;3.50;;;20.00;41.20;;;;;;5059312;28;20474;-78
2023/04/08 09:01:33;;;;;;;4.57;4.17;;;20.00;41.20;;;;;;5080044;28;20449;-76
2023/04/08 09:04:09;;;;;;;4.67;4.23;;;20.00;41.20;;;;;;5072767;28;20480;-78
2023/04/08 09:06:37;;;;;;;4.30;3.90;;;19.90;40.90;;;;;;5067782;28;20445;-78
2023/04/08 09:09:09;;;;;;;4.97;4.20;;;19.90;41.10;;;;;;5067629;28;20465;-78
2023/04/08 09:11:39;;;;;;;4.60;3.90;;;20.00;40.80;;;;;;5069550;28;20445;-78
2023/04/08 09:14:17;;;;;;;9.77;4.10;;;20.00;40.80;;;;;;5069850;28;20525;-77
2023/04/08 09:16:45;;;;;;;5.17;4.20;;;20.00;40.90;;;;;;5069405;28;20446;-78
2023/04/08 09:19:13;;;;;;;4.77;4.20;;;20.00;40.60;;;;;;5065908;28;20528;-78
2023/04/08 09:21:42;;;;;;;4.27;3.87;;;20.10;40.80;;;;;;5074269;28;20457;-78
2023/04/08 09:24:10;;;;;;;4.80;4.40;;;20.10;40.70;;;;;;5076464;28;20511;-78
2023/04/08 09:26:40;;;;;;;4.50;4.10;;;20.10;40.60;;;;;;5062114;28;20442;-78
2023/04/08 09:29:09;;;;;;;4.33;4.03;;;20.10;40.50;;;;;;5064704;28;20470;-78
2023/04/08 09:31:54;;;;;;;4.43;3.93;;;20.10;40.50;;;;;;5065267;28;20449;-78
2023/04/08 09:34:22;;;;;;;4.90;4.40;;;20.10;40.50;;;;;;5066833;28;20489;-79
2023/04/08 09:36:50;;;;;;;6.30;5.07;;;20.10;41.10;;;;;;5072966;28;20458;-79
2023/04/08 09:39:18;;;;;;;5.47;4.93;;;20.20;40.60;;;;;;5068651;28;20488;-79
2023/04/08 09:41:48;;;;;;;5.23;4.07;;;20.20;40.60;;;;;;5066218;28;20453;-79
2023/04/08 09:44:16;;;;;;;4.43;4.03;;;20.20;40.50;;;;;;5070257;28;20825;-79
2023/04/08 09:46:47;;;;;;;4.20;3.80;;;20.20;40.50;;;;;;5074772;28;20437;-79
2023/04/08 09:49:18;;;;;;;4.10;3.80;;;20.20;40.30;;;;;;5064650;28;20471;-80
2023/04/08 09:51:49;;;;;;;5.93;4.70;;;20.30;40.40;;;;;;5070308;28;20442;-79
2023/04/08 09:54:22;;;;;;;4.60;4.20;;;20.30;40.30;;;;;;5075860;28;20456;-79
2023/04/08 09:56:56;;;;;;;3.83;3.53;;;20.30;40.20;;;;;;5067618;28;20454;-79
2023/04/08 09:59:26;;;;;;;4.50;3.93;;;20.40;40.20;;;;;;5070721;28;20485;-78
2023/04/08 10:01:54;;;;;;;4.13;3.83;;;20.40;40.20;;;;;;5073846;28;20452;-78
2023/04/08 10:04:23;;;;;;;6.20;4.30;;;20.50;40.20;;;;;;5065382;28;20475;-78
2023/04/08 10:06:57;;;;;;;4.57;4.17;;;20.50;40.10;;;;;;5071636;28;20454;-78
2023/04/08 10:09:26;;;;;;;5.50;4.23;;;20.50;40.10;;;;;;5073480;28;20471;-79
2023/04/08 10:11:55;;;;;;;6.00;4.63;;;20.50;40.00;;;;;;5077499;28;20452;-78
2023/04/08 10:14:27;;;;;;;6.00;4.33;;;20.60;40.20;;;;;;5070463;28;20536;-78
2023/04/08 10:17:26;;;;;;;4.67;4.17;;;20.60;40.10;;;;;;5068239;28;20453;-78
2023/04/08 10:19:54;;;;;;;4.60;4.20;;;20.70;40.10;;;;;;5064241;28;20474;-78
2023/04/08 10:22:47;;;;;;;5.83;4.70;;;20.80;40.20;;;;;;5068781;28;20449;-77
2023/04/08 10:25:32;;;;;;;5.67;4.50;;;20.80;39.90;;;;;;5071017;28;20453;-78
2023/04/08 10:28:02;;;;;;;5.33;4.80;;;20.90;39.90;;;;;;5064588;28;20449;-78
2023/04/08 10:30:39;;;;;;;4.53;4.13;;;20.90;39.90;;;;;;5065914;28;20422;-78
2023/04/08 10:33:10;;;;;;;4.57;4.17;;;20.90;39.90;;;;;;5066754;28;20449;-78
2023/04/08 10:35:40;;;;;;;4.73;4.33;;;21.00;39.90;;;;;;5069448;28;20442;-78
2023/04/08 10:38:08;;;;;;;5.20;4.40;;;20.90;39.90;;;;;;5072173;28;20485;-78
2023/04/08 10:40:37;;;;;;;5.10;4.33;;;21.00;39.90;;;;;;5071489;28;20472;-78
2023/04/08 10:43:07;;;;;;;5.00;4.50;;;21.00;39.80;;;;;;5068065;28;20477;-78
2023/04/08 10:45:34;;;;;;;5.20;4.33;;;21.10;39.90;;;;;;5063982;28;20454;-79
2023/04/08 10:48:15;;;;;;;6.33;5.03;;;21.10;39.80;;;;;;5068882;28;20470;-79
2023/04/08 10:50:43;;;;;;;5.80;5.20;;;21.10;39.70;;;;;;5063234;28;20510;-79
2023/04/08 10:53:11;;;;;;;5.70;4.50;;;21.10;39.70;;;;;;5072449;28;20472;-79
2023/04/08 10:55:39;;;;;;;4.90;4.40;;;21.20;40.00;;;;;;5071660;28;20448;-78
2023/04/08 10:58:10;;;;;;;5.40;4.80;;;21.20;39.80;;;;;;5072856;28;20483;-78
2023/04/08 11:00:38;;;;;;;5.60;4.40;;;21.10;39.70;;;;;;5066959;28;20497;-79
2023/04/08 11:03:10;;;;;;;7.00;4.70;;;21.10;39.80;;;;;;5063610;28;20449;-78
2023/04/08 11:05:42;;;;;;;4.47;4.10;;;21.10;39.90;;;;;;5066810;28;20471;-79
2023/04/08 11:08:10;;;;;;;5.30;4.80;;;21.20;39.90;;;;;;5066520;28;20482;-79
2023/04/08 11:10:38;;;;;;;4.77;4.37;;;21.30;39.90;;;;;;5068653;28;20453;-78
2023/04/08 11:13:09;;;;;;;5.40;4.60;;;21.30;40.00;;;;;;5062561;28;20461;-77
2023/04/08 11:15:37;;;;;;;5.33;4.20;;;21.30;39.90;;;;;;5074460;28;20461;-80
2023/04/08 11:18:05;;;;;;;7.63;4.63;;;21.30;39.90;;;;;;5061618;28;20474;-79
2023/04/08 11:20:36;;;;;;;4.97;4.27;;;21.30;39.80;;;;;;5072264;28;20472;-80
2023/04/08 11:23:04;;;;;;;5.87;4.60;;;21.40;39.80;;;;;;5072814;28;20456;-79
2023/04/08 11:25:32;;;;;;;4.67;4.27;;;21.40;39.90;;;;;;5064296;28;20510;-80
2023/04/08 11:28:00;;;;;;;4.60;4.20;;;21.40;39.90;;;;;;5064608;28;20817;-79
2023/04/08 11:30:30;;;;;;;6.00;4.20;;;21.50;40.10;;;;;;5068383;28;20457;-78
2023/04/08 11:32:58;;;;;;;5.70;4.70;;;21.50;39.90;;;;;;5064145;28;20453;-78
2023/04/08 11:35:28;;;;;;;4.93;4.50;;;21.50;40.00;;;;;;5069846;28;20638;-79
2023/04/08 11:37:57;;;;;;;5.17;4.40;;;21.50;39.80;;;;;;5069689;28;20470;-80
2023/04/08 11:40:25;;;;;;;4.87;4.33;;;21.50;39.80;;;;;;5072301;28;20470;-79
2023/04/08 11:42:53;;;;;;;4.77;4.37;;;21.60;39.90;;;;;;5066683;28;20449;-79
2023/04/08 11:45:21;;;;;;;4.37;4.00;;;21.60;39.90;;;;;;5073310;28;20862;-79
2023/04/08 11:47:50;;;;;;;4.80;4.37;;;21.60;39.80;;;;;;5069546;28;20457;-77
2023/04/08 11:50:25;;;;;;;5.00;4.53;;;21.70;39.80;;;;;;5067459;28;20438;-78
2023/04/08 11:52:54;;;;;;;5.50;4.30;;;21.70;39.90;;;;;;5067016;28;20459;-77
2023/04/08 11:55:23;;;;;;;5.07;4.63;;;21.70;39.90;;;;;;5066231;28;20427;-77
2023/04/08 11:57:51;;;;;;;5.40;4.37;;;21.70;39.80;;;;;;5069401;28;20454;-75
2023/04/08 12:00:20;;;;;;;5.40;4.90;;;21.70;39.80;;;;;;5066323;28;20477;-77
2023/04/08 12:02:48;;;;;;;5.33;4.80;;;21.70;39.90;;;;;;5062477;28;20481;-77
2023/04/08 12:05:17;;;;;;;4.80;4.40;;;21.70;39.90;;;;;;5070284;28;20512;-78
2023/04/08 12:07:46;;;;;;;5.00;4.60;;;21.70;39.80;;;;;;5066391;28;20429;-77
2023/04/08 12:10:14;;;;;;;4.77;4.43;;;21.70;39.80;;;;;;5079531;28;20458;-78
2023/04/08 12:12:41;;;;;;;5.37;4.83;;;21.80;39.90;;;;;;5065539;28;20438;-80
2023/04/08 12:15:10;;;;;;;5.20;4.33;;;21.80;39.80;;;;;;5065956;28;20445;-79
2023/04/08 12:17:38;;;;;;;4.73;4.33;;;21.80;39.80;;;;;;5064300;28;20453;-81
2023/04/08 12:20:07;;;;;;;5.17;4.40;;;21.90;39.80;;;;;;5067298;28;20469;-79
2023/04/08 12:22:36;;;;;;;4.63;4.27;;;22.00;39.80;;;;;;5065486;28;20950;-79
2023/04/08 12:25:05;;;;;;;4.33;4.00;;;22.00;39.80;;;;;;5066032;28;20446;-78
2023/04/08 12:27:33;;;;;;;5.23;4.73;;;22.10;39.90;;;;;;5066871;28;20445;-78
2023/04/08 12:30:01;;;;;;;7.27;4.70;;;22.30;39.80;;;;;;5069751;28;20458;-76
2023/04/08 12:32:29;;;;;;;5.23;4.70;;;22.30;39.70;;;;;;5070546;28;20476;-78
2023/04/08 12:34:57;;;;;;;5.97;4.73;;;22.40;39.70;;;;;;5071421;28;20471;-78
2023/04/08 12:37:26;;;;;;;10.47;4.77;;;22.40;39.70;;;;;;5062602;28;20457;-78
2023/04/08 12:39:55;;;;;;;5.20;4.70;;;22.50;39.80;;;;;;5062945;28;20538;-76
2023/04/08 12:42:25;;;;;;;4.80;4.40;;;22.50;39.80;;;;;;5054521;28;20629;-78
2023/04/08 12:44:53;;;;;;;6.50;4.67;;;22.50;40.00;;;;;;5070630;28;20511;-78
2023/04/08 12:47:20;;;;;;;4.70;4.30;;;22.50;39.90;;;;;;5057223;28;20446;-78
2023/04/08 12:49:52;;;;;;;5.37;4.53;;;22.60;40.00;;;;;;5065348;28;20497;-78
2023/04/08 12:52:20;;;;;;;5.40;4.20;;;22.60;40.00;;;;;;5066375;28;20452;-78
2023/04/08 12:54:48;;;;;;;5.10;4.60;;;22.60;39.90;;;;;;5065650;28;20529;-78
2023/04/08 12:57:17;;;;;;;4.80;4.30;;;22.70;40.10;;;;;;5061326;28;20431;-78